Bastrop, Texas
Current Conditions -  °F | °C
As of 6:55 AM on Friday 19 Dec 2014 (Local Time) from KGYB Reporting Station
Heavy Rain Heavy Rain  
Wind Chill: 45°   Ceiling: 500
Heat Index: 49°   Visibility: 2.5mi
Dew Point: 49°   Wind: 12mph
Humidity: 97%   Direction: 10°N
Pressure: 30.11"   Gusts: 16mph
Location:  30.11°N, 97.32°W
Report Text: KGYB 191255Z AUTO 01010G14KT 2 1/2SM +RA OVC005 10/09 A3011 RMK AO2 P0016 T00970092
Loading
Personal Weather Stations






























Interactive Weather Map New forecast layout! Learn more

10-Day Weather Forecast

Advertisements
Track Severe Weather on mobile